createdAt,value
2023-04-02T00:00:22.301Z,100.00
2023-04-02T00:03:01.727Z,100.00
2023-04-02T00:05:52.504Z,100.00
2023-04-02T00:08:27.830Z,100.00
2023-04-02T00:11:00.679Z,100.00
2023-04-02T00:13:36.026Z,100.00
2023-04-02T00:16:09.883Z,100.00
2023-04-02T00:18:45.882Z,100.00
2023-04-02T00:21:23.260Z,100.00
2023-04-02T00:23:54.776Z,100.00
2023-04-02T00:26:31.198Z,100.00
2023-04-02T00:29:01.500Z,100.00
2023-04-02T00:31:33.347Z,100.00
2023-04-02T00:34:05.709Z,100.00
2023-04-02T00:36:38.269Z,100.00
2023-04-02T00:39:20.209Z,100.00
2023-04-02T00:41:54.805Z,100.00
2023-04-02T00:44:24.589Z,100.00
2023-04-02T00:50:26.622Z,100.00
2023-04-02T00:52:59.411Z,100.00
2023-04-02T00:55:35.370Z,100.00
2023-04-02T00:58:05.823Z,100.00
2023-04-02T01:00:37.948Z,100.00
2023-04-02T01:03:36.970Z,100.00
2023-04-02T01:06:13.411Z,100.00
2023-04-02T01:09:11.782Z,100.00
2023-04-02T01:12:07.220Z,100.00
2023-04-02T01:14:47.531Z,100.00
2023-04-02T01:17:32.908Z,100.00
2023-04-02T01:20:56.019Z,100.00
2023-04-02T01:23:34.851Z,100.00
2023-04-02T01:26:15.138Z,100.00
2023-04-02T01:29:02.451Z,100.00
2023-04-02T01:31:33.690Z,100.00
2023-04-02T01:34:08.188Z,100.00
2023-04-02T01:36:49.027Z,100.00
2023-04-02T01:39:34.593Z,100.00
2023-04-02T01:42:14.497Z,100.00
2023-04-02T01:44:50.568Z,100.00
2023-04-02T01:47:24.713Z,100.00
2023-04-02T01:49:59.983Z,100.00
2023-04-02T01:52:40.792Z,100.00
2023-04-02T01:55:13.351Z,100.00
2023-04-02T01:57:46.368Z,100.00
2023-04-02T02:00:20.184Z,100.00
2023-04-02T02:02:51.907Z,100.00
2023-04-02T02:05:24.371Z,100.00
2023-04-02T02:07:55.304Z,100.00
2023-04-02T02:10:28.917Z,100.00
2023-04-02T02:13:00.729Z,100.00
2023-04-02T02:15:34.567Z,100.00
2023-04-02T02:18:07.778Z,100.00
2023-04-02T02:20:37.354Z,100.00
2023-04-02T02:23:07.620Z,100.00
2023-04-02T02:25:38.830Z,100.00
2023-04-02T02:28:12.122Z,100.00
2023-04-02T02:30:47.815Z,100.00
2023-04-02T02:33:22.500Z,100.00
2023-04-02T02:35:58.428Z,100.00
2023-04-02T02:38:57.189Z,100.00
2023-04-02T02:41:35.151Z,100.00
2023-04-02T02:44:12.415Z,100.00
2023-04-02T02:46:48.259Z,100.00
2023-04-02T02:49:21.604Z,100.00
2023-04-02T02:51:59.988Z,100.00
2023-04-02T02:54:31.770Z,100.00
2023-04-02T02:57:07.307Z,100.00
2023-04-02T02:59:37.410Z,100.00
2023-04-02T03:02:09.866Z,100.00
2023-04-02T03:04:42.166Z,100.00
2023-04-02T03:07:11.902Z,100.00
2023-04-02T03:09:52.517Z,100.00
2023-04-02T03:12:39.363Z,100.00
2023-04-02T03:15:21.194Z,100.00
2023-04-02T03:17:58.050Z,100.00
2023-04-02T03:20:36.586Z,100.00
2023-04-02T03:23:14.454Z,100.00
2023-04-02T03:25:49.314Z,100.00
2023-04-02T03:28:25.100Z,100.00
2023-04-02T03:31:01.491Z,100.00
2023-04-02T03:33:37.600Z,100.00
2023-04-02T03:36:20.243Z,100.00
2023-04-02T03:38:54.009Z,100.00
2023-04-02T03:41:31.057Z,100.00
2023-04-02T03:44:07.956Z,100.00
2023-04-02T03:46:42.834Z,100.00
2023-04-02T03:51:19.754Z,100.00
2023-04-02T03:53:50.993Z,100.00
2023-04-02T03:56:29.966Z,100.00
2023-04-02T03:59:12.305Z,100.00
2023-04-02T04:01:49.956Z,100.00
2023-04-02T04:04:22.410Z,100.00
2023-04-02T04:06:54.865Z,100.00
2023-04-02T04:09:31.929Z,100.00
2023-04-02T04:12:11.720Z,100.00
2023-04-02T04:14:49.782Z,100.00
2023-04-02T04:17:24.872Z,100.00
2023-04-02T04:20:01.167Z,100.00
2023-04-02T04:22:34.145Z,100.00
2023-04-02T04:25:06.325Z,100.00
2023-04-02T04:27:44.228Z,100.00
2023-04-02T04:30:25.459Z,100.00
2023-04-02T04:33:02.112Z,100.00
2023-04-02T04:35:34.696Z,100.00
2023-04-02T04:38:14.730Z,100.00
2023-04-02T04:40:52.638Z,100.00
2023-04-02T04:43:30.250Z,100.00
2023-04-02T04:46:06.555Z,100.00
2023-04-02T04:48:40.717Z,100.00
2023-04-02T04:51:18.893Z,100.00
2023-04-02T04:53:52.858Z,100.00
2023-04-02T04:56:26.809Z,100.00
2023-04-02T04:59:03.998Z,100.00
2023-04-02T05:01:42.655Z,100.00
2023-04-02T05:04:21.072Z,100.00
2023-04-02T05:06:58.876Z,100.00
2023-04-02T05:09:36.055Z,100.00
2023-04-02T05:12:19.391Z,100.00
2023-04-02T05:14:55.932Z,100.00
2023-04-02T05:17:33.061Z,100.00
2023-04-02T05:20:10.041Z,100.00
2023-04-02T05:22:48.773Z,100.00
2023-04-02T05:25:25.062Z,100.00
2023-04-02T05:28:02.511Z,100.00
2023-04-02T05:30:53.434Z,100.00
2023-04-02T05:33:27.626Z,100.00
2023-04-02T05:36:03.534Z,100.00
2023-04-02T05:38:36.870Z,100.00
2023-04-02T05:41:22.813Z,100.00
2023-04-02T05:43:59.964Z,100.00
2023-04-02T05:46:35.403Z,100.00
2023-04-02T05:49:12.057Z,100.00
2023-04-02T05:51:47.473Z,100.00
2023-04-02T05:54:25.647Z,100.00
2023-04-02T05:57:03.861Z,100.00
2023-04-02T05:59:38.858Z,100.00
2023-04-02T06:02:18.514Z,100.00
2023-04-02T06:04:55.868Z,100.00
2023-04-02T06:07:28.546Z,100.00
2023-04-02T06:10:07.155Z,100.00
2023-04-02T06:12:45.938Z,100.00
2023-04-02T06:15:16.855Z,100.00
2023-04-02T06:17:50.017Z,99.03
2023-04-02T06:20:21.736Z,99.13
2023-04-02T06:22:53.912Z,98.89
2023-04-02T06:25:30.237Z,99.30
2023-04-02T06:28:04.333Z,99.31
2023-04-02T06:30:36.850Z,96.72
2023-04-02T06:33:08.228Z,97.67
2023-04-02T06:35:40.978Z,98.16
2023-04-02T06:38:17.836Z,98.50
2023-04-02T06:40:53.677Z,96.52
2023-04-02T06:43:33.719Z,96.48
2023-04-02T06:46:10.439Z,94.46
2023-04-02T06:51:14.623Z,93.04
2023-04-02T06:53:47.461Z,86.14
2023-04-02T06:56:32.076Z,88.48
2023-04-02T06:59:03.791Z,89.15
2023-04-02T07:01:38.887Z,89.33
2023-04-02T07:04:08.788Z,89.20
2023-04-02T07:06:39.671Z,88.34
2023-04-02T07:09:09.489Z,85.58
2023-04-02T07:11:38.869Z,84.40
2023-04-02T07:14:08.783Z,82.33
2023-04-02T07:16:37.997Z,82.92
2023-04-02T07:19:07.757Z,84.92
2023-04-02T07:21:38.532Z,84.26
2023-04-02T07:24:08.752Z,85.22
2023-04-02T07:26:38.233Z,85.20
2023-04-02T07:29:10.240Z,83.35
2023-04-02T07:31:41.014Z,78.61
2023-04-02T07:34:11.500Z,80.48
2023-04-02T07:36:42.207Z,82.37
2023-04-02T07:39:12.427Z,82.23
2023-04-02T07:41:55.448Z,81.78
2023-04-02T07:44:25.267Z,82.13
2023-04-02T07:46:54.855Z,81.76
2023-04-02T07:49:24.454Z,82.00
2023-04-02T07:51:55.678Z,80.85
2023-04-02T07:54:25.096Z,79.89
2023-04-02T07:56:54.557Z,77.51
2023-04-02T07:59:24.226Z,77.79
2023-04-02T08:01:54.781Z,74.68
2023-04-02T08:04:25.294Z,76.11
2023-04-02T08:06:56.212Z,75.33
2023-04-02T08:09:25.798Z,71.54
2023-04-02T08:11:55.078Z,71.88
2023-04-02T08:14:24.397Z,71.33
2023-04-02T08:16:56.407Z,69.72
2023-04-02T08:19:26.258Z,71.42
2023-04-02T08:21:57.385Z,69.05
2023-04-02T08:24:27.231Z,71.39
2023-04-02T08:26:56.752Z,69.61
2023-04-02T08:29:26.394Z,66.05
2023-04-02T08:31:56.151Z,65.85
2023-04-02T08:34:25.693Z,65.77
2023-04-02T08:37:00.361Z,64.77
2023-04-02T08:39:33.271Z,66.70
2023-04-02T08:42:08.246Z,63.56
2023-04-02T08:44:47.104Z,63.00
2023-04-02T08:47:21.848Z,66.43
2023-04-02T08:49:56.780Z,65.89
2023-04-02T08:52:30.254Z,64.62
2023-04-02T08:55:00.728Z,64.00
2023-04-02T08:57:38.999Z,64.83
2023-04-02T09:00:27.697Z,61.78
2023-04-02T09:03:00.755Z,61.07
2023-04-02T09:05:34.801Z,62.08
2023-04-02T09:08:11.450Z,60.91
2023-04-02T09:10:47.290Z,59.65
2023-04-02T09:13:24.389Z,58.50
2023-04-02T09:16:00.304Z,54.69
2023-04-02T09:18:33.098Z,60.18
2023-04-02T09:21:10.170Z,57.23
2023-04-02T09:23:40.974Z,60.30
2023-04-02T09:26:24.748Z,58.23
2023-04-02T09:29:01.348Z,58.27
2023-04-02T09:31:37.790Z,56.27
2023-04-02T09:34:30.932Z,56.28
2023-04-02T09:37:10.675Z,58.01
2023-04-02T09:39:41.486Z,56.91
2023-04-02T09:42:35.230Z,53.85
2023-04-02T09:45:22.936Z,54.83
2023-04-02T09:51:16.834Z,56.14
2023-04-02T09:53:49.485Z,52.98
2023-04-02T09:56:23.455Z,56.43
2023-04-02T09:59:05.982Z,57.07
2023-04-02T10:01:39.006Z,55.59
2023-04-02T10:04:35.129Z,55.32
2023-04-02T10:07:07.763Z,55.06
2023-04-02T10:09:39.848Z,53.14
2023-04-02T10:12:15.038Z,54.39
2023-04-02T10:14:48.574Z,52.58
2023-04-02T10:17:23.549Z,54.75
2023-04-02T10:19:57.018Z,53.06
2023-04-02T10:22:31.411Z,54.38
2023-04-02T10:25:01.533Z,53.79
2023-04-02T10:27:39.189Z,55.96
2023-04-02T10:30:20.481Z,57.50
2023-04-02T10:32:56.757Z,57.54
2023-04-02T10:35:40.992Z,55.07
2023-04-02T10:38:38.945Z,52.72
2023-04-02T10:41:24.640Z,49.35
2023-04-02T10:44:34.037Z,51.79
2023-04-02T10:47:22.372Z,49.17
2023-04-02T10:50:11.611Z,50.55
2023-04-02T10:52:47.542Z,52.53
2023-04-02T10:55:23.854Z,48.83
2023-04-02T10:57:55.981Z,48.62
2023-04-02T11:00:28.597Z,50.88
2023-04-02T11:03:08.194Z,47.12
2023-04-02T11:05:44.174Z,49.11
2023-04-02T11:08:22.062Z,48.19
2023-04-02T11:11:01.771Z,48.49
2023-04-02T11:13:39.150Z,47.43
2023-04-02T11:16:09.216Z,45.79
2023-04-02T11:18:39.008Z,42.75
2023-04-02T11:21:10.302Z,46.36
2023-04-02T11:23:58.135Z,45.86
2023-04-02T11:26:37.728Z,45.13
2023-04-02T11:29:32.280Z,45.00
2023-04-02T11:32:40.731Z,45.27
2023-04-02T11:35:38.451Z,44.92
2023-04-02T11:38:53.021Z,45.40
2023-04-02T11:42:04.984Z,46.06
2023-04-02T11:44:34.378Z,46.19
2023-04-02T11:47:21.033Z,40.49
2023-04-02T11:50:22.222Z,45.34
2023-04-02T11:52:55.878Z,44.87
2023-04-02T11:55:34.517Z,47.75
2023-04-02T11:58:46.369Z,45.94
2023-04-02T12:01:59.711Z,49.61
2023-04-02T12:04:57.449Z,48.29
2023-04-02T12:08:10.373Z,47.59
2023-04-02T12:10:57.068Z,45.97
2023-04-02T12:13:55.401Z,44.29
2023-04-02T12:16:29.407Z,42.52
2023-04-02T12:18:59.806Z,43.10
2023-04-02T12:21:31.510Z,44.37
2023-04-02T12:24:02.131Z,45.68
2023-04-02T12:26:42.588Z,46.34
2023-04-02T12:29:28.413Z,46.30
2023-04-02T12:32:00.004Z,48.10
2023-04-02T12:34:32.031Z,43.12
2023-04-02T12:37:04.256Z,46.24
2023-04-02T12:39:35.679Z,44.51
2023-04-02T12:42:05.150Z,47.19
2023-04-02T12:44:36.071Z,46.97
2023-04-02T12:47:07.384Z,47.24
2023-04-02T12:51:13.268Z,44.67
2023-04-02T12:53:44.270Z,47.60
2023-04-02T12:56:22.796Z,47.73
2023-04-02T12:58:56.373Z,49.68
2023-04-02T13:01:28.532Z,48.57
2023-04-02T13:04:07.397Z,47.29
2023-04-02T13:06:39.078Z,43.97
2023-04-02T13:09:30.139Z,42.84
2023-04-02T13:12:00.742Z,45.38
2023-04-02T13:14:31.305Z,43.54
2023-04-02T13:17:00.611Z,44.31
2023-04-02T13:19:32.889Z,45.40
2023-04-02T13:22:25.616Z,45.18
2023-04-02T13:24:58.491Z,44.93
2023-04-02T13:27:27.871Z,43.40
2023-04-02T13:29:58.442Z,42.01
2023-04-02T13:32:28.575Z,41.80
2023-04-02T13:34:57.883Z,41.76
2023-04-02T13:37:28.846Z,42.40
2023-04-02T13:39:58.216Z,43.05
2023-04-02T13:42:27.628Z,42.42
2023-04-02T13:44:57.017Z,40.33
2023-04-02T13:47:26.870Z,40.37
2023-04-02T13:49:56.239Z,41.98
2023-04-02T13:52:25.697Z,42.29
2023-04-02T13:55:00.846Z,41.48
2023-04-02T13:57:30.304Z,41.20
2023-04-02T13:59:59.742Z,43.73
2023-04-02T14:02:29.348Z,41.35
2023-04-02T14:05:13.687Z,43.57
2023-04-02T14:07:57.832Z,39.83
2023-04-02T14:10:48.793Z,43.53
2023-04-02T14:13:36.335Z,41.72
2023-04-02T14:16:22.631Z,39.81
2023-04-02T14:19:23.313Z,41.83
2023-04-02T14:22:06.514Z,43.44
2023-04-02T14:24:46.618Z,39.94
2023-04-02T14:27:29.692Z,40.36
2023-04-02T14:30:07.971Z,41.03
2023-04-02T14:32:45.773Z,43.69
2023-04-02T14:35:25.156Z,41.08
2023-04-02T14:38:05.859Z,42.99
2023-04-02T14:40:42.376Z,42.54
2023-04-02T14:43:21.472Z,44.12
2023-04-02T14:46:01.138Z,43.28
2023-04-02T14:48:47.950Z,44.66
2023-04-02T14:51:27.617Z,44.57
2023-04-02T14:54:06.798Z,45.02
2023-04-02T14:56:43.214Z,45.50
2023-04-02T14:59:27.706Z,46.17
2023-04-02T15:02:05.478Z,44.46
2023-04-02T15:04:42.006Z,44.66
2023-04-02T15:07:21.671Z,46.19
2023-04-02T15:10:00.548Z,45.30
2023-04-02T15:12:36.748Z,48.22
2023-04-02T15:15:29.634Z,48.83
2023-04-02T15:18:05.230Z,46.48
2023-04-02T15:20:44.723Z,47.20
2023-04-02T15:23:24.952Z,47.93
2023-04-02T15:26:08.027Z,49.46
2023-04-02T15:28:44.936Z,47.77
2023-04-02T15:31:17.257Z,49.03
2023-04-02T15:33:50.191Z,48.56
2023-04-02T15:36:47.257Z,49.47
2023-04-02T15:39:43.692Z,49.87
2023-04-02T15:42:22.562Z,49.59
2023-04-02T15:45:24.282Z,49.98
2023-04-02T15:51:37.680Z,50.40
2023-04-02T15:54:27.218Z,50.72
2023-04-02T15:57:13.756Z,50.14
2023-04-02T16:00:04.218Z,50.20
2023-04-02T16:03:17.691Z,50.14
2023-04-02T16:06:06.209Z,50.65
2023-04-02T16:09:11.534Z,51.62
2023-04-02T16:11:40.880Z,52.25
2023-04-02T16:14:28.570Z,53.16
2023-04-02T16:17:08.068Z,54.57
2023-04-02T16:19:50.612Z,54.80
2023-04-02T16:22:26.114Z,54.10
2023-04-02T16:25:03.697Z,55.39
2023-04-02T16:27:39.285Z,56.60
2023-04-02T16:30:36.210Z,57.86
2023-04-02T16:33:23.630Z,57.95
2023-04-02T16:36:05.983Z,57.57
2023-04-02T16:38:51.840Z,58.45
2023-04-02T16:41:33.421Z,59.40
2023-04-02T16:44:15.084Z,59.51
2023-04-02T16:47:03.117Z,60.18
2023-04-02T16:49:40.135Z,60.67
2023-04-02T16:52:33.789Z,61.13
2023-04-02T16:55:25.177Z,61.40
2023-04-02T16:58:09.080Z,61.36
2023-04-02T17:00:46.112Z,61.46
2023-04-02T17:03:37.751Z,61.95
2023-04-02T17:06:11.072Z,62.47
2023-04-02T17:08:45.993Z,62.50
2023-04-02T17:11:26.248Z,63.01
2023-04-02T17:14:06.384Z,64.21
2023-04-02T17:16:43.805Z,64.99
2023-04-02T17:19:15.777Z,65.65
2023-04-02T17:21:49.157Z,67.55
2023-04-02T17:24:25.911Z,67.62
2023-04-02T17:27:01.168Z,68.16
2023-04-02T17:29:38.353Z,67.71
2023-04-02T17:32:16.364Z,67.81
2023-04-02T17:34:45.675Z,68.78
2023-04-02T17:37:28.209Z,68.70
2023-04-02T17:40:14.281Z,71.76
2023-04-02T17:42:56.455Z,71.41
2023-04-02T17:45:38.391Z,72.42
2023-04-02T17:48:18.166Z,72.63
2023-04-02T17:51:09.759Z,72.63
2023-04-02T17:53:50.707Z,72.45
2023-04-02T17:56:59.594Z,72.61
2023-04-02T17:59:49.011Z,73.21
2023-04-02T18:02:39.896Z,73.71
2023-04-02T18:05:21.754Z,73.43
2023-04-02T18:08:04.439Z,74.11
2023-04-02T18:10:42.451Z,73.89
2023-04-02T18:13:24.257Z,73.92
2023-04-02T18:16:09.485Z,74.77
2023-04-02T18:19:19.323Z,75.25
2023-04-02T18:21:57.229Z,75.76
2023-04-02T18:24:54.052Z,75.97
2023-04-02T18:27:49.299Z,76.02
2023-04-02T18:30:26.277Z,76.36
2023-04-02T18:33:20.644Z,76.63
2023-04-02T18:36:01.398Z,76.79
2023-04-02T18:38:42.298Z,77.09
2023-04-02T18:41:38.412Z,77.58
2023-04-02T18:44:23.853Z,78.87
2023-04-02T18:46:57.167Z,78.05
2023-04-02T18:51:16.879Z,78.34
2023-04-02T18:53:47.196Z,79.45
2023-04-02T18:56:21.969Z,79.32
2023-04-02T18:58:59.990Z,79.96
2023-04-02T19:01:38.729Z,79.45
2023-04-02T19:04:13.181Z,78.31
2023-04-02T19:06:47.694Z,78.04
2023-04-02T19:09:21.008Z,77.56
2023-04-02T19:11:53.120Z,78.02
2023-04-02T19:14:24.440Z,79.36
2023-04-02T19:17:03.296Z,79.82
2023-04-02T19:19:39.655Z,79.40
2023-04-02T19:22:31.756Z,78.99
2023-04-02T19:25:36.176Z,78.64
2023-04-02T19:28:14.829Z,77.62
2023-04-02T19:30:59.133Z,79.51
2023-04-02T19:33:49.879Z,79.43
2023-04-02T19:36:47.491Z,80.27
2023-04-02T19:40:00.290Z,80.68
2023-04-02T19:42:44.056Z,80.32
2023-04-02T19:45:33.118Z,80.61
2023-04-02T19:48:14.707Z,80.55
2023-04-02T19:50:44.649Z,79.82
2023-04-02T19:53:15.030Z,78.83
2023-04-02T19:55:46.936Z,77.88
2023-04-02T19:58:28.765Z,78.42
2023-04-02T20:00:58.751Z,76.73
2023-04-02T20:03:28.362Z,75.32
2023-04-02T20:05:59.943Z,75.13
2023-04-02T20:08:29.852Z,74.47
2023-04-02T20:11:01.925Z,76.89
2023-04-02T20:13:31.751Z,76.80
2023-04-02T20:16:02.132Z,76.71
2023-04-02T20:18:32.160Z,77.66
2023-04-02T20:21:06.383Z,79.20
2023-04-02T20:23:36.871Z,78.68
2023-04-02T20:26:08.799Z,78.86
2023-04-02T20:28:38.113Z,79.57
2023-04-02T20:31:10.473Z,79.43
2023-04-02T20:33:40.047Z,80.59
2023-04-02T20:36:12.916Z,80.36
2023-04-02T20:38:41.973Z,79.59
2023-04-02T20:41:12.858Z,80.19
2023-04-02T20:43:42.948Z,79.50
2023-04-02T20:46:14.701Z,78.66
2023-04-02T20:48:44.702Z,79.90
2023-04-02T20:51:17.081Z,80.09
2023-04-02T20:53:46.808Z,80.06
2023-04-02T20:56:19.736Z,80.53
2023-04-02T20:58:49.257Z,80.14
2023-04-02T21:01:23.091Z,80.17
2023-04-02T21:03:57.256Z,80.71
2023-04-02T21:06:29.922Z,81.38
2023-04-02T21:08:59.084Z,80.69
2023-04-02T21:11:30.004Z,80.88
2023-04-02T21:14:00.583Z,81.23
2023-04-02T21:16:32.084Z,81.06
2023-04-02T21:19:04.800Z,81.81
2023-04-02T21:21:34.728Z,82.06
2023-04-02T21:24:07.255Z,82.54
2023-04-02T21:26:41.182Z,82.40
2023-04-02T21:29:13.730Z,82.75
2023-04-02T21:31:43.713Z,83.08
2023-04-02T21:34:18.223Z,82.41
2023-04-02T21:36:50.674Z,81.32
2023-04-02T21:39:23.085Z,81.55
2023-04-02T21:41:54.983Z,81.49
2023-04-02T21:44:25.964Z,80.70
2023-04-02T21:46:55.571Z,81.09
2023-04-02T21:51:14.186Z,80.88
2023-04-02T21:53:44.646Z,81.39
2023-04-02T21:56:17.147Z,81.36
2023-04-02T21:58:47.619Z,81.62
2023-04-02T22:01:26.877Z,82.04
2023-04-02T22:03:58.252Z,82.46
2023-04-02T22:06:31.289Z,83.01
2023-04-02T22:09:05.039Z,83.98
2023-04-02T22:11:38.585Z,83.93
2023-04-02T22:14:08.557Z,85.30
2023-04-02T22:16:38.854Z,84.86
2023-04-02T22:19:11.934Z,84.87
2023-04-02T22:21:42.825Z,85.15
2023-04-02T22:24:16.728Z,85.08
2023-04-02T22:26:46.408Z,84.96
2023-04-02T22:29:15.897Z,85.99
2023-04-02T22:31:45.842Z,85.44
2023-04-02T22:34:15.366Z,86.38
2023-04-02T22:36:46.273Z,85.38
2023-04-02T22:39:16.346Z,85.44
2023-04-02T22:41:45.995Z,84.76
2023-04-02T22:44:17.297Z,84.45
2023-04-02T22:46:46.799Z,84.28
2023-04-02T22:49:19.627Z,84.11
2023-04-02T22:51:50.656Z,83.99
2023-04-02T22:54:20.070Z,85.20
2023-04-02T22:56:49.475Z,86.75
2023-04-02T22:59:18.807Z,86.79
2023-04-02T23:01:48.217Z,87.43
2023-04-02T23:04:17.965Z,87.15
2023-04-02T23:06:48.839Z,86.95
2023-04-02T23:09:18.345Z,87.29
2023-04-02T23:11:47.799Z,87.81
2023-04-02T23:14:17.172Z,88.09
2023-04-02T23:16:46.535Z,88.72
2023-04-02T23:19:16.076Z,89.09
2023-04-02T23:21:45.388Z,89.69
2023-04-02T23:24:16.655Z,89.27
2023-04-02T23:26:46.050Z,89.43
2023-04-02T23:29:15.760Z,90.08
2023-04-02T23:31:45.180Z,90.12
2023-04-02T23:34:14.839Z,89.48
2023-04-02T23:36:44.264Z,89.34
2023-04-02T23:39:16.449Z,89.87
2023-04-02T23:41:46.381Z,90.24
2023-04-02T23:44:16.091Z,91.39
2023-04-02T23:46:45.530Z,92.00
2023-04-02T23:49:14.960Z,92.88
2023-04-02T23:51:44.373Z,92.91
2023-04-02T23:54:16.721Z,93.01
2023-04-02T23:56:46.156Z,93.24
2023-04-02T23:59:15.732Z,93.52
